sensor_id;sensor_type;location;lat;lon;timestamp;P1;P4;P2;P0;N10;N4;N25;N1;N05;TS
53088;SPS30;38968;47.696;17.540;2023-03-16T00:00:34;1;;1;1;;;;;;
53088;SPS30;38968;47.696;17.540;2023-03-16T00:05:33;0;;0;0;;;;;;
53088;SPS30;38968;47.696;17.540;2023-03-16T00:10:33;0;;0;0;;;;;;
53088;SPS30;38968;47.696;17.540;2023-03-16T00:15:33;0;;0;0;;;;;;
53088;SPS30;38968;47.696;17.540;2023-03-16T00:20:34;0;;0;0;;;;;;
53088;SPS30;38968;47.696;17.540;2023-03-16T00:25:33;0;;0;0;;;;;;
53088;SPS30;38968;47.696;17.540;2023-03-16T00:30:33;0;;0;0;;;;;;
53088;SPS30;38968;47.696;17.540;2023-03-16T00:35:34;0;;0;0;;;;;;
53088;SPS30;38968;47.696;17.540;2023-03-16T00:40:33;0;;0;0;;;;;;
53088;SPS30;38968;47.696;17.540;2023-03-16T00:45:33;0;;0;0;;;;;;
53088;SPS30;38968;47.696;17.540;2023-03-16T00:50:33;0;;0;0;;;;;;
53088;SPS30;38968;47.696;17.540;2023-03-16T00:55:33;0;;0;0;;;;;;
53088;SPS30;38968;47.696;17.540;2023-03-16T01:00:34;0;;0;0;;;;;;
53088;SPS30;38968;47.696;17.540;2023-03-16T01:05:33;0;;0;0;;;;;;
53088;SPS30;38968;47.696;17.540;2023-03-16T01:10:34;0;;0;0;;;;;;
53088;SPS30;38968;47.696;17.540;2023-03-16T01:15:34;1;;1;1;;;;;;
53088;SPS30;38968;47.696;17.540;2023-03-16T01:20:33;1;;1;1;;;;;;
53088;SPS30;38968;47.696;17.540;2023-03-16T01:25:34;1;;1;0;;;;;;
53088;SPS30;38968;47.696;17.540;2023-03-16T01:30:33;0;;0;0;;;;;;
53088;SPS30;38968;47.696;17.540;2023-03-16T01:35:34;1;;1;1;;;;;;
53088;SPS30;38968;47.696;17.540;2023-03-16T01:40:33;1;;1;1;;;;;;
53088;SPS30;38968;47.696;17.540;2023-03-16T01:50:34;1;;1;1;;;;;;
53088;SPS30;38968;47.696;17.540;2023-03-16T01:55:34;1;;1;0;;;;;;
53088;SPS30;38968;47.696;17.540;2023-03-16T02:00:33;1;;1;1;;;;;;
53088;SPS30;38968;47.696;17.540;2023-03-16T02:05:35;1;;1;1;;;;;;
53088;SPS30;38968;47.696;17.540;2023-03-16T02:10:33;2;;2;2;;;;;;
53088;SPS30;38968;47.696;17.540;2023-03-16T02:15:33;1;;1;0;;;;;;
53088;SPS30;38968;47.696;17.540;2023-03-16T02:30:34;3;;3;2;;;;;;
53088;SPS30;38968;47.696;17.540;2023-03-16T02:35:34;1;;1;1;;;;;;
53088;SPS30;38968;47.696;17.540;2023-03-16T02:40:34;3;;3;3;;;;;;
53088;SPS30;38968;47.696;17.540;2023-03-16T02:45:38;2;;2;2;;;;;;
53088;SPS30;38968;47.696;17.540;2023-03-16T02:50:33;3;;3;3;;;;;;
53088;SPS30;38968;47.696;17.540;2023-03-16T02:55:33;2;;2;1;;;;;;
53088;SPS30;38968;47.696;17.540;2023-03-16T03:00:33;1;;1;1;;;;;;
53088;SPS30;38968;47.696;17.540;2023-03-16T03:05:34;1;;1;1;;;;;;
53088;SPS30;38968;47.696;17.540;2023-03-16T03:10:34;1;;1;1;;;;;;
53088;SPS30;38968;47.696;17.540;2023-03-16T03:15:33;2;;2;2;;;;;;
53088;SPS30;38968;47.696;17.540;2023-03-16T03:20:34;1;;1;1;;;;;;
53088;SPS30;38968;47.696;17.540;2023-03-16T03:25:33;1;;1;1;;;;;;
53088;SPS30;38968;47.696;17.540;2023-03-16T03:30:33;1;;1;1;;;;;;
53088;SPS30;38968;47.696;17.540;2023-03-16T03:35:33;1;;1;1;;;;;;
53088;SPS30;38968;47.696;17.540;2023-03-16T03:40:34;1;;1;1;;;;;;
53088;SPS30;38968;47.696;17.540;2023-03-16T03:45:33;1;;1;1;;;;;;
53088;SPS30;38968;47.696;17.540;2023-03-16T03:50:33;1;;1;1;;;;;;
53088;SPS30;38968;47.696;17.540;2023-03-16T03:55:35;2;;2;2;;;;;;
53088;SPS30;38968;47.696;17.540;2023-03-16T04:00:33;2;;2;2;;;;;;
53088;SPS30;38968;47.696;17.540;2023-03-16T04:05:34;2;;2;2;;;;;;
53088;SPS30;38968;47.696;17.540;2023-03-16T04:10:33;1;;1;1;;;;;;
53088;SPS30;38968;47.696;17.540;2023-03-16T04:15:33;1;;1;1;;;;;;
53088;SPS30;38968;47.696;17.540;2023-03-16T04:20:33;2;;2;1;;;;;;
53088;SPS30;38968;47.696;17.540;2023-03-16T04:25:34;2;;2;1;;;;;;
53088;SPS30;38968;47.696;17.540;2023-03-16T04:30:34;2;;2;2;;;;;;
53088;SPS30;38968;47.696;17.540;2023-03-16T04:35:33;1;;1;1;;;;;;
53088;SPS30;38968;47.696;17.540;2023-03-16T04:40:33;1;;1;1;;;;;;
53088;SPS30;38968;47.696;17.540;2023-03-16T04:45:34;2;;2;2;;;;;;
53088;SPS30;38968;47.696;17.540;2023-03-16T04:50:33;2;;2;2;;;;;;
53088;SPS30;38968;47.696;17.540;2023-03-16T04:55:34;2;;2;2;;;;;;
53088;SPS30;38968;47.696;17.540;2023-03-16T05:00:34;1;;1;1;;;;;;
53088;SPS30;38968;47.696;17.540;2023-03-16T05:05:33;1;;1;1;;;;;;
53088;SPS30;38968;47.696;17.540;2023-03-16T05:10:34;2;;2;2;;;;;;
53088;SPS30;38968;47.696;17.540;2023-03-16T05:15:33;2;;2;2;;;;;;
53088;SPS30;38968;47.696;17.540;2023-03-16T05:20:33;2;;2;2;;;;;;
53088;SPS30;38968;47.696;17.540;2023-03-16T05:25:33;2;;2;1;;;;;;
53088;SPS30;38968;47.696;17.540;2023-03-16T05:30:33;2;;2;1;;;;;;
53088;SPS30;38968;47.696;17.540;2023-03-16T05:35:34;2;;2;2;;;;;;
53088;SPS30;38968;47.696;17.540;2023-03-16T05:40:35;1;;1;1;;;;;;
53088;SPS30;38968;47.696;17.540;2023-03-16T05:45:33;2;;2;2;;;;;;
53088;SPS30;38968;47.696;17.540;2023-03-16T05:50:34;2;;2;2;;;;;;
53088;SPS30;38968;47.696;17.540;2023-03-16T05:55:33;1;;1;1;;;;;;
53088;SPS30;38968;47.696;17.540;2023-03-16T06:00:34;2;;2;2;;;;;;
53088;SPS30;38968;47.696;17.540;2023-03-16T06:05:33;4;;4;4;;;;;;
53088;SPS30;38968;47.696;17.540;2023-03-16T06:10:34;2;;2;2;;;;;;
53088;SPS30;38968;47.696;17.540;2023-03-16T06:15:33;2;;2;2;;;;;;
53088;SPS30;38968;47.696;17.540;2023-03-16T06:20:34;2;;2;2;;;;;;
53088;SPS30;38968;47.696;17.540;2023-03-16T06:25:33;2;;2;2;;;;;;
53088;SPS30;38968;47.696;17.540;2023-03-16T06:30:33;2;;2;2;;;;;;
53088;SPS30;38968;47.696;17.540;2023-03-16T06:35:33;2;;2;2;;;;;;
53088;SPS30;38968;47.696;17.540;2023-03-16T06:40:34;3;;3;2;;;;;;
53088;SPS30;38968;47.696;17.540;2023-03-16T06:45:33;4;;4;3;;;;;;
53088;SPS30;38968;47.696;17.540;2023-03-16T06:50:33;3;;3;3;;;;;;
53088;SPS30;38968;47.696;17.540;2023-03-16T06:55:34;3;;3;2;;;;;;
53088;SPS30;38968;47.696;17.540;2023-03-16T07:00:33;4;;4;3;;;;;;
53088;SPS30;38968;47.696;17.540;2023-03-16T07:05:33;4;;4;4;;;;;;
53088;SPS30;38968;47.696;17.540;2023-03-16T07:10:34;3;;3;3;;;;;;
53088;SPS30;38968;47.696;17.540;2023-03-16T07:15:34;3;;3;3;;;;;;
53088;SPS30;38968;47.696;17.540;2023-03-16T07:20:33;7;;7;6;;;;;;
53088;SPS30;38968;47.696;17.540;2023-03-16T07:25:34;3;;3;3;;;;;;
53088;SPS30;38968;47.696;17.540;2023-03-16T07:30:33;4;;4;4;;;;;;
53088;SPS30;38968;47.696;17.540;2023-03-16T07:35:34;3;;3;3;;;;;;
53088;SPS30;38968;47.696;17.540;2023-03-16T07:40:33;7;;7;7;;;;;;
53088;SPS30;38968;47.696;17.540;2023-03-16T07:45:33;3;;3;2;;;;;;
53088;SPS30;38968;47.696;17.540;2023-03-16T07:50:34;4;;4;4;;;;;;
53088;SPS30;38968;47.696;17.540;2023-03-16T07:55:33;3;;3;2;;;;;;
53088;SPS30;38968;47.696;17.540;2023-03-16T08:00:33;3;;3;3;;;;;;
53088;SPS30;38968;47.696;17.540;2023-03-16T08:05:33;2;;2;2;;;;;;
53088;SPS30;38968;47.696;17.540;2023-03-16T08:10:34;2;;2;2;;;;;;
53088;SPS30;38968;47.696;17.540;2023-03-16T08:15:34;4;;4;3;;;;;;
53088;SPS30;38968;47.696;17.540;2023-03-16T08:20:33;5;;4;4;;;;;;
53088;SPS30;38968;47.696;17.540;2023-03-16T08:25:34;4;;4;3;;;;;;
53088;SPS30;38968;47.696;17.540;2023-03-16T08:30:34;4;;4;3;;;;;;
53088;SPS30;38968;47.696;17.540;2023-03-16T08:35:33;2;;2;2;;;;;;
53088;SPS30;38968;47.696;17.540;2023-03-16T08:40:33;4;;4;3;;;;;;
53088;SPS30;38968;47.696;17.540;2023-03-16T08:45:33;4;;4;3;;;;;;
53088;SPS30;38968;47.696;17.540;2023-03-16T08:50:33;3;;3;3;;;;;;
53088;SPS30;38968;47.696;17.540;2023-03-16T08:55:33;3;;3;3;;;;;;
53088;SPS30;38968;47.696;17.540;2023-03-16T09:00:33;3;;3;3;;;;;;
53088;SPS30;38968;47.696;17.540;2023-03-16T09:05:33;3;;3;3;;;;;;
53088;SPS30;38968;47.696;17.540;2023-03-16T09:10:34;3;;3;2;;;;;;
53088;SPS30;38968;47.696;17.540;2023-03-16T09:15:33;2;;2;2;;;;;;
53088;SPS30;38968;47.696;17.540;2023-03-16T09:20:33;2;;2;2;;;;;;
53088;SPS30;38968;47.696;17.540;2023-03-16T09:25:33;2;;2;2;;;;;;
53088;SPS30;38968;47.696;17.540;2023-03-16T09:30:33;2;;2;2;;;;;;
53088;SPS30;38968;47.696;17.540;2023-03-16T09:35:34;1;;1;1;;;;;;
53088;SPS30;38968;47.696;17.540;2023-03-16T09:40:34;2;;2;2;;;;;;
53088;SPS30;38968;47.696;17.540;2023-03-16T09:45:40;3;;3;2;;;;;;
53088;SPS30;38968;47.696;17.540;2023-03-16T09:50:36;2;;2;2;;;;;;
53088;SPS30;38968;47.696;17.540;2023-03-16T09:55:35;2;;2;2;;;;;;
53088;SPS30;38968;47.696;17.540;2023-03-16T10:00:35;2;;2;2;;;;;;
53088;SPS30;38968;47.696;17.540;2023-03-16T10:05:33;2;;2;2;;;;;;
53088;SPS30;38968;47.696;17.540;2023-03-16T10:15:34;1;;1;1;;;;;;
53088;SPS30;38968;47.696;17.540;2023-03-16T10:20:33;2;;2;2;;;;;;
53088;SPS30;38968;47.696;17.540;2023-03-16T10:25:44;3;;3;2;;;;;;
53088;SPS30;38968;47.696;17.540;2023-03-16T10:30:35;3;;3;2;;;;;;
53088;SPS30;38968;47.696;17.540;2023-03-16T10:35:41;2;;2;2;;;;;;
53088;SPS30;38968;47.696;17.540;2023-03-16T10:40:37;2;;2;2;;;;;;
53088;SPS30;38968;47.696;17.540;2023-03-16T10:45:34;4;;4;4;;;;;;
53088;SPS30;38968;47.696;17.540;2023-03-16T10:50:33;2;;2;2;;;;;;
53088;SPS30;38968;47.696;17.540;2023-03-16T10:55:40;1;;1;1;;;;;;
53088;SPS30;38968;47.696;17.540;2023-03-16T11:00:35;1;;1;1;;;;;;
53088;SPS30;38968;47.696;17.540;2023-03-16T11:05:33;2;;2;2;;;;;;
53088;SPS30;38968;47.696;17.540;2023-03-16T11:10:40;2;;2;2;;;;;;
53088;SPS30;38968;47.696;17.540;2023-03-16T11:15:38;2;;2;2;;;;;;
53088;SPS30;38968;47.696;17.540;2023-03-16T11:20:33;1;;1;1;;;;;;
53088;SPS30;38968;47.696;17.540;2023-03-16T11:25:38;1;;1;1;;;;;;
53088;SPS30;38968;47.696;17.540;2023-03-16T11:45:50;0;;0;0;;;;;;
53088;SPS30;38968;47.696;17.540;2023-03-16T11:50:36;1;;1;1;;;;;;
53088;SPS30;38968;47.696;17.540;2023-03-16T12:05:46;1;;1;1;;;;;;
53088;SPS30;38968;47.696;17.540;2023-03-16T12:10:46;2;;2;2;;;;;;
53088;SPS30;38968;47.696;17.540;2023-03-16T12:20:36;2;;2;2;;;;;;
53088;SPS30;38968;47.696;17.540;2023-03-16T12:25:35;1;;1;1;;;;;;
53088;SPS30;38968;47.696;17.540;2023-03-16T12:40:37;1;;1;1;;;;;;
53088;SPS30;38968;47.696;17.540;2023-03-16T12:50:45;0;;0;0;;;;;;
53088;SPS30;38968;47.696;17.540;2023-03-16T13:00:34;1;;1;1;;;;;;
53088;SPS30;38968;47.696;17.540;2023-03-16T13:05:34;0;;0;0;;;;;;
53088;SPS30;38968;47.696;17.540;2023-03-16T13:10:33;0;;0;0;;;;;;
53088;SPS30;38968;47.696;17.540;2023-03-16T13:15:34;1;;1;1;;;;;;
53088;SPS30;38968;47.696;17.540;2023-03-16T13:20:34;1;;1;1;;;;;;
53088;SPS30;38968;47.696;17.540;2023-03-16T13:25:37;1;;1;0;;;;;;
53088;SPS30;38968;47.696;17.540;2023-03-16T13:30:33;0;;0;0;;;;;;
53088;SPS30;38968;47.696;17.540;2023-03-16T13:35:35;0;;0;0;;;;;;
53088;SPS30;38968;47.696;17.540;2023-03-16T13:40:33;0;;0;0;;;;;;
53088;SPS30;38968;47.696;17.540;2023-03-16T13:45:36;0;;0;0;;;;;;
53088;SPS30;38968;47.696;17.540;2023-03-16T13:50:34;3;;3;2;;;;;;
53088;SPS30;38968;47.696;17.540;2023-03-16T13:55:34;1;;1;1;;;;;;
53088;SPS30;38968;47.696;17.540;2023-03-16T14:00:34;1;;1;1;;;;;;
53088;SPS30;38968;47.696;17.540;2023-03-16T14:05:33;1;;1;1;;;;;;
53088;SPS30;38968;47.696;17.540;2023-03-16T14:10:33;1;;1;1;;;;;;
53088;SPS30;38968;47.696;17.540;2023-03-16T14:15:34;1;;1;1;;;;;;
53088;SPS30;38968;47.696;17.540;2023-03-16T14:20:33;1;;1;1;;;;;;
53088;SPS30;38968;47.696;17.540;2023-03-16T14:25:34;1;;1;1;;;;;;
53088;SPS30;38968;47.696;17.540;2023-03-16T14:30:33;1;;1;1;;;;;;
53088;SPS30;38968;47.696;17.540;2023-03-16T14:35:43;1;;1;1;;;;;;
53088;SPS30;38968;47.696;17.540;2023-03-16T14:40:34;1;;1;1;;;;;;
53088;SPS30;38968;47.696;17.540;2023-03-16T14:45:34;1;;1;1;;;;;;
53088;SPS30;38968;47.696;17.540;2023-03-16T14:50:34;1;;1;1;;;;;;
53088;SPS30;38968;47.696;17.540;2023-03-16T14:55:33;0;;0;0;;;;;;
53088;SPS30;38968;47.696;17.540;2023-03-16T15:00:33;2;;2;2;;;;;;
53088;SPS30;38968;47.696;17.540;2023-03-16T15:05:40;2;;2;2;;;;;;
53088;SPS30;38968;47.696;17.540;2023-03-16T15:10:34;1;;1;1;;;;;;
53088;SPS30;38968;47.696;17.540;2023-03-16T15:15:33;1;;1;1;;;;;;
53088;SPS30;38968;47.696;17.540;2023-03-16T15:20:38;1;;1;1;;;;;;
53088;SPS30;38968;47.696;17.540;2023-03-16T15:25:37;3;;3;3;;;;;;
53088;SPS30;38968;47.696;17.540;2023-03-16T15:30:34;2;;2;2;;;;;;
53088;SPS30;38968;47.696;17.540;2023-03-16T15:35:34;1;;1;1;;;;;;
53088;SPS30;38968;47.696;17.540;2023-03-16T15:40:33;6;;6;6;;;;;;
53088;SPS30;38968;47.696;17.540;2023-03-16T15:45:34;8;;7;6;;;;;;
53088;SPS30;38968;47.696;17.540;2023-03-16T15:50:33;11;;10;9;;;;;;
53088;SPS30;38968;47.696;17.540;2023-03-16T15:55:40;6;;5;5;;;;;;
53088;SPS30;38968;47.696;17.540;2023-03-16T16:00:34;3;;3;2;;;;;;
53088;SPS30;38968;47.696;17.540;2023-03-16T16:05:33;1;;1;1;;;;;;
53088;SPS30;38968;47.696;17.540;2023-03-16T16:10:34;2;;2;2;;;;;;
53088;SPS30;38968;47.696;17.540;2023-03-16T16:15:34;2;;2;2;;;;;;
53088;SPS30;38968;47.696;17.540;2023-03-16T16:20:33;2;;2;2;;;;;;
53088;SPS30;38968;47.696;17.540;2023-03-16T16:25:35;1;;1;1;;;;;;
53088;SPS30;38968;47.696;17.540;2023-03-16T16:30:33;1;;1;1;;;;;;
53088;SPS30;38968;47.696;17.540;2023-03-16T16:35:34;1;;1;1;;;;;;
53088;SPS30;38968;47.696;17.540;2023-03-16T16:40:34;3;;2;2;;;;;;
53088;SPS30;38968;47.696;17.540;2023-03-16T16:45:35;2;;2;1;;;;;;
53088;SPS30;38968;47.696;17.540;2023-03-16T16:50:33;1;;1;1;;;;;;
53088;SPS30;38968;47.696;17.540;2023-03-16T16:55:34;1;;1;1;;;;;;
53088;SPS30;38968;47.696;17.540;2023-03-16T17:00:33;1;;1;1;;;;;;
53088;SPS30;38968;47.696;17.540;2023-03-16T17:05:34;4;;4;4;;;;;;
53088;SPS30;38968;47.696;17.540;2023-03-16T17:10:34;3;;3;3;;;;;;
53088;SPS30;38968;47.696;17.540;2023-03-16T17:15:33;3;;3;3;;;;;;
53088;SPS30;38968;47.696;17.540;2023-03-16T17:20:34;2;;2;2;;;;;;
53088;SPS30;38968;47.696;17.540;2023-03-16T17:25:33;3;;3;3;;;;;;
53088;SPS30;38968;47.696;17.540;2023-03-16T17:30:34;7;;7;6;;;;;;
53088;SPS30;38968;47.696;17.540;2023-03-16T17:35:36;16;;15;14;;;;;;
53088;SPS30;38968;47.696;17.540;2023-03-16T17:40:34;23;;21;18;;;;;;
53088;SPS30;38968;47.696;17.540;2023-03-16T17:45:34;14;;14;12;;;;;;
53088;SPS30;38968;47.696;17.540;2023-03-16T17:50:34;10;;10;9;;;;;;
53088;SPS30;38968;47.696;17.540;2023-03-16T17:55:34;8;;8;7;;;;;;
53088;SPS30;38968;47.696;17.540;2023-03-16T18:00:34;9;;9;8;;;;;;
53088;SPS30;38968;47.696;17.540;2023-03-16T18:05:34;5;;5;4;;;;;;
53088;SPS30;38968;47.696;17.540;2023-03-16T18:10:34;7;;7;7;;;;;;
53088;SPS30;38968;47.696;17.540;2023-03-16T18:15:34;6;;6;5;;;;;;
53088;SPS30;38968;47.696;17.540;2023-03-16T18:20:34;4;;4;3;;;;;;
53088;SPS30;38968;47.696;17.540;2023-03-16T18:25:34;13;;12;11;;;;;;
53088;SPS30;38968;47.696;17.540;2023-03-16T18:30:34;25;;22;17;;;;;;
53088;SPS30;38968;47.696;17.540;2023-03-16T18:35:34;21;;20;17;;;;;;
53088;SPS30;38968;47.696;17.540;2023-03-16T18:40:34;21;;19;17;;;;;;
53088;SPS30;38968;47.696;17.540;2023-03-16T18:45:34;16;;15;14;;;;;;
53088;SPS30;38968;47.696;17.540;2023-03-16T18:50:35;29;;28;25;;;;;;
53088;SPS30;38968;47.696;17.540;2023-03-16T18:55:34;23;;23;21;;;;;;
53088;SPS30;38968;47.696;17.540;2023-03-16T19:00:34;26;;25;24;;;;;;
53088;SPS30;38968;47.696;17.540;2023-03-16T19:05:34;8;;8;7;;;;;;
53088;SPS30;38968;47.696;17.540;2023-03-16T19:10:34;7;;7;6;;;;;;
53088;SPS30;38968;47.696;17.540;2023-03-16T19:15:34;7;;7;6;;;;;;
53088;SPS30;38968;47.696;17.540;2023-03-16T19:20:34;6;;5;5;;;;;;
53088;SPS30;38968;47.696;17.540;2023-03-16T19:25:35;3;;3;3;;;;;;
53088;SPS30;38968;47.696;17.540;2023-03-16T19:30:37;3;;3;3;;;;;;
53088;SPS30;38968;47.696;17.540;2023-03-16T19:35:34;2;;2;2;;;;;;
53088;SPS30;38968;47.696;17.540;2023-03-16T19:40:36;4;;4;3;;;;;;
53088;SPS30;38968;47.696;17.540;2023-03-16T19:45:34;5;;5;5;;;;;;
53088;SPS30;38968;47.696;17.540;2023-03-16T19:50:34;5;;4;4;;;;;;
53088;SPS30;38968;47.696;17.540;2023-03-16T19:55:34;5;;5;4;;;;;;
53088;SPS30;38968;47.696;17.540;2023-03-16T20:00:34;6;;5;5;;;;;;
53088;SPS30;38968;47.696;17.540;2023-03-16T20:05:35;7;;7;6;;;;;;
53088;SPS30;38968;47.696;17.540;2023-03-16T20:10:33;7;;7;6;;;;;;
53088;SPS30;38968;47.696;17.540;2023-03-16T20:15:34;5;;5;5;;;;;;
53088;SPS30;38968;47.696;17.540;2023-03-16T20:20:34;4;;4;4;;;;;;
53088;SPS30;38968;47.696;17.540;2023-03-16T20:25:35;4;;4;4;;;;;;
53088;SPS30;38968;47.696;17.540;2023-03-16T20:30:34;5;;5;5;;;;;;
53088;SPS30;38968;47.696;17.540;2023-03-16T20:35:35;5;;5;5;;;;;;
53088;SPS30;38968;47.696;17.540;2023-03-16T20:40:34;4;;4;4;;;;;;
53088;SPS30;38968;47.696;17.540;2023-03-16T20:45:33;5;;5;5;;;;;;
53088;SPS30;38968;47.696;17.540;2023-03-16T20:50:34;7;;7;6;;;;;;
53088;SPS30;38968;47.696;17.540;2023-03-16T20:55:34;5;;5;5;;;;;;
53088;SPS30;38968;47.696;17.540;2023-03-16T21:00:35;4;;4;4;;;;;;
53088;SPS30;38968;47.696;17.540;2023-03-16T21:05:34;4;;4;4;;;;;;
53088;SPS30;38968;47.696;17.540;2023-03-16T21:10:33;5;;5;4;;;;;;
53088;SPS30;38968;47.696;17.540;2023-03-16T21:15:34;4;;3;3;;;;;;
53088;SPS30;38968;47.696;17.540;2023-03-16T21:20:34;3;;3;3;;;;;;
53088;SPS30;38968;47.696;17.540;2023-03-16T21:25:35;4;;4;4;;;;;;
53088;SPS30;38968;47.696;17.540;2023-03-16T21:30:37;3;;3;3;;;;;;
53088;SPS30;38968;47.696;17.540;2023-03-16T21:35:34;4;;4;4;;;;;;
53088;SPS30;38968;47.696;17.540;2023-03-16T21:40:33;3;;3;3;;;;;;
53088;SPS30;38968;47.696;17.540;2023-03-16T21:45:35;3;;3;3;;;;;;
53088;SPS30;38968;47.696;17.540;2023-03-16T21:50:34;5;;5;4;;;;;;
53088;SPS30;38968;47.696;17.540;2023-03-16T21:55:33;3;;3;3;;;;;;
53088;SPS30;38968;47.696;17.540;2023-03-16T22:00:33;5;;5;4;;;;;;
53088;SPS30;38968;47.696;17.540;2023-03-16T22:05:34;5;;5;4;;;;;;
53088;SPS30;38968;47.696;17.540;2023-03-16T22:10:33;4;;4;3;;;;;;
53088;SPS30;38968;47.696;17.540;2023-03-16T22:15:34;4;;4;4;;;;;;
53088;SPS30;38968;47.696;17.540;2023-03-16T22:20:34;5;;5;5;;;;;;
53088;SPS30;38968;47.696;17.540;2023-03-16T22:25:33;4;;4;4;;;;;;
53088;SPS30;38968;47.696;17.540;2023-03-16T22:30:34;3;;3;3;;;;;;
53088;SPS30;38968;47.696;17.540;2023-03-16T22:35:34;5;;5;4;;;;;;
53088;SPS30;38968;47.696;17.540;2023-03-16T22:40:35;4;;4;4;;;;;;
53088;SPS30;38968;47.696;17.540;2023-03-16T22:45:33;5;;5;5;;;;;;
53088;SPS30;38968;47.696;17.540;2023-03-16T22:50:34;6;;6;6;;;;;;
53088;SPS30;38968;47.696;17.540;2023-03-16T22:55:34;7;;7;6;;;;;;
53088;SPS30;38968;47.696;17.540;2023-03-16T23:00:33;5;;5;4;;;;;;
53088;SPS30;38968;47.696;17.540;2023-03-16T23:05:34;4;;4;4;;;;;;
53088;SPS30;38968;47.696;17.540;2023-03-16T23:10:33;6;;6;6;;;;;;
53088;SPS30;38968;47.696;17.540;2023-03-16T23:15:33;4;;4;4;;;;;;
53088;SPS30;38968;47.696;17.540;2023-03-16T23:20:34;3;;3;3;;;;;;
53088;SPS30;38968;47.696;17.540;2023-03-16T23:25:33;5;;5;4;;;;;;
53088;SPS30;38968;47.696;17.540;2023-03-16T23:30:34;4;;4;4;;;;;;
53088;SPS30;38968;47.696;17.540;2023-03-16T23:35:34;5;;5;5;;;;;;
53088;SPS30;38968;47.696;17.540;2023-03-16T23:40:34;4;;4;4;;;;;;
53088;SPS30;38968;47.696;17.540;2023-03-16T23:45:40;5;;5;4;;;;;;
53088;SPS30;38968;47.696;17.540;2023-03-16T23:50:34;5;;5;4;;;;;;
53088;SPS30;38968;47.696;17.540;2023-03-16T23:55:34;5;;5;4;;;;;;
